Time;durP1;ratioP1;P1;durP2;ratioP2;P2;SDS_P1;SDS_P2;PMS_P1;PMS_P2;Temp;Humidity;BMP_temperature;BMP_pressure;BME280_temperature;BME280_humidity;BME280_pressure;Samples;Min_cycle;Max_cycle;Signal;HPM_P1;HPM_P2
2023/06/23 00:00:13;;;;;;;10.80;8.10;;;;;;;17.40;65.62;100128.65;131128;1254;107524;-80
2023/06/23 00:03:43;;;;;;;9.20;7.40;;;;;;;17.36;65.77;100132.08;131109;1250;106925;-80
2023/06/23 00:06:48;;;;;;;10.00;7.40;;;;;;;17.34;65.82;100135.09;131330;1254;107324;-80
2023/06/23 00:09:54;;;;;;;8.30;6.90;;;;;;;17.32;65.92;100133.34;131198;1251;107598;-80
2023/06/23 00:13:00;;;;;;;7.90;6.70;;;;;;;17.33;66.03;100138.61;131081;1253;108719;-80
2023/06/23 00:16:06;;;;;;;9.30;7.10;;;;;;;17.34;66.06;100134.48;131159;1253;107476;-80
2023/06/23 00:19:12;;;;;;;7.10;6.20;;;;;;;17.32;66.05;100116.20;131165;1251;107483;-80
2023/06/23 00:22:18;;;;;;;10.20;7.30;;;;;;;17.33;66.24;100111.15;131154;1254;108067;-80
2023/06/23 00:25:24;;;;;;;8.50;6.80;;;;;;;17.32;66.20;100102.85;131206;1253;107436;-80
2023/06/23 00:28:29;;;;;;;10.00;6.90;;;;;;;17.26;66.24;100095.07;131198;1250;107336;-80
2023/06/23 00:31:35;;;;;;;7.90;6.80;;;;;;;17.22;66.30;100087.70;131296;1251;107163;-80
2023/06/23 00:34:40;;;;;;;9.90;6.90;;;;;;;17.14;66.40;100079.41;131114;1253;107449;-80
2023/06/23 00:37:46;;;;;;;9.20;7.10;;;;;;;17.05;66.44;100085.89;131070;1251;107432;-80
2023/06/23 00:40:51;;;;;;;8.60;6.20;;;;;;;17.02;66.67;100081.35;131038;1256;107537;-80
2023/06/23 00:43:59;;;;;;;7.30;5.70;;;;;;;16.98;66.56;100076.09;131090;1253;107349;-80
2023/06/23 00:47:05;;;;;;;8.90;5.80;;;;;;;16.98;66.74;100075.40;131361;1253;107360;-80
2023/06/23 00:50:13;;;;;;;7.50;6.00;;;;;;;17.00;66.77;100077.44;131210;1253;107503;-80
2023/06/23 00:53:19;;;;;;;8.20;6.10;;;;;;;17.02;66.82;100078.90;131326;1254;107585;-80
2023/06/23 00:56:25;;;;;;;7.70;6.60;;;;;;;17.03;66.82;100082.57;131244;1258;106794;-80
2023/06/23 00:59:31;;;;;;;7.50;6.30;;;;;;;17.04;66.85;100080.36;131173;1256;107527;-80
2023/06/23 01:02:39;;;;;;;8.30;6.90;;;;;;;17.01;66.96;100077.48;131145;1255;108533;-81
2023/06/23 01:05:47;;;;;;;8.00;6.70;;;;;;;16.97;67.08;100064.36;131181;1253;107429;-80
2023/06/23 01:09:00;;;;;;;9.20;6.80;;;;;;;16.94;67.12;100056.84;130934;1254;107624;-80
2023/06/23 01:12:14;;;;;;;9.40;7.40;;;;;;;16.87;67.34;100059.34;130967;1251;107709;-80
2023/06/23 01:15:27;;;;;;;8.80;6.80;;;;;;;16.81;67.28;100060.65;131081;1253;107467;-80
2023/06/23 01:18:47;;;;;;;8.90;7.00;;;;;;;16.77;67.36;100054.77;131067;1254;107521;-80
2023/06/23 01:22:03;;;;;;;7.70;6.70;;;;;;;16.73;67.44;100059.72;131097;1254;107227;-80
2023/06/23 01:25:22;;;;;;;6.40;5.30;;;;;;;16.70;67.48;100062.23;131232;1251;107469;-80
2023/06/23 01:28:50;;;;;;;7.40;6.30;;;;;;;16.71;67.63;100054.58;131276;1251;107515;-80
2023/06/23 01:32:02;;;;;;;8.50;6.40;;;;;;;16.74;67.63;100053.63;131147;1250;107557;-80
2023/06/23 01:35:18;;;;;;;8.00;6.40;;;;;;;16.76;67.84;100055.30;131182;1254;108079;-80
2023/06/23 01:38:30;;;;;;;8.30;6.30;;;;;;;16.79;67.71;100056.92;131383;1254;107425;-80
2023/06/23 01:41:43;;;;;;;7.60;6.40;;;;;;;16.79;67.75;100055.31;131096;1251;106384;-80
2023/06/23 01:44:54;;;;;;;9.50;6.60;;;;;;;16.78;67.87;100055.80;131071;1253;107524;-79
2023/06/23 01:48:06;;;;;;;8.30;6.90;;;;;;;16.76;67.92;100058.56;131137;1251;107407;-80
2023/06/23 01:51:14;;;;;;;7.90;6.50;;;;;;;16.75;68.04;100054.26;131072;1250;107524;-81
2023/06/23 01:54:23;;;;;;;7.80;6.60;;;;;;;16.75;68.07;100046.88;131082;1253;107593;-80
2023/06/23 01:57:31;;;;;;;8.20;7.20;;;;;;;16.71;68.08;100036.61;131050;1254;107504;-80
2023/06/23 02:00:38;;;;;;;8.40;6.30;;;;;;;16.64;68.35;100028.41;131015;1256;107529;-80
2023/06/23 02:03:45;;;;;;;9.10;6.10;;;;;;;16.65;68.48;100019.05;131062;1254;107282;-80
2023/06/23 02:06:54;;;;;;;7.60;6.10;;;;;;;16.65;68.47;100019.21;130878;1253;256734;-80
2023/06/23 02:10:02;;;;;;;7.30;6.50;;;;;;;16.67;68.55;100022.59;131128;1250;107264;-80
2023/06/23 02:13:08;;;;;;;8.40;6.80;;;;;;;16.70;68.66;100031.14;131352;1253;108126;-79
2023/06/23 02:16:15;;;;;;;7.60;6.50;;;;;;;16.74;68.70;100037.80;130976;1257;107498;-79
2023/06/23 02:19:22;;;;;;;7.60;6.80;;;;;;;16.77;68.79;100039.02;131041;1253;107234;-79
2023/06/23 02:22:29;;;;;;;9.00;7.00;;;;;;;16.77;68.88;100040.64;131061;1251;107239;-79
2023/06/23 02:25:36;;;;;;;8.70;6.60;;;;;;;16.77;68.88;100034.20;131248;1253;107546;-79
2023/06/23 02:28:42;;;;;;;15.40;8.00;;;;;;;16.79;68.87;100026.77;131250;1251;107755;-79
2023/06/23 02:31:48;;;;;;;7.60;6.40;;;;;;;16.79;69.07;100025.73;131419;1257;107494;-82
2023/06/23 02:34:54;;;;;;;7.80;6.50;;;;;;;16.78;69.08;100018.80;131234;1253;107483;-80
2023/06/23 02:38:03;;;;;;;6.90;5.30;;;;;;;16.82;69.21;100012.23;131103;1250;107271;-81
2023/06/23 02:41:12;;;;;;;6.80;6.10;;;;;;;16.86;69.33;100008.00;131475;1254;107521;-83
2023/06/23 02:44:24;;;;;;;8.10;6.50;;;;;;;16.93;69.45;100018.35;131270;1253;107366;-80
2023/06/23 02:47:35;;;;;;;9.10;6.20;;;;;;;16.99;69.55;100024.39;131212;1250;108126;-80
2023/06/23 02:50:41;;;;;;;7.70;6.20;;;;;;;17.06;69.66;100017.25;131436;1250;107554;-80
2023/06/23 02:53:51;;;;;;;7.10;6.40;;;;;;;17.13;69.69;100016.41;131067;1251;107527;-80
2023/06/23 02:57:00;;;;;;;7.60;6.80;;;;;;;17.21;69.74;100009.30;131095;1256;107534;-80
2023/06/23 03:00:12;;;;;;;7.00;6.20;;;;;;;17.28;69.84;100008.00;131069;1250;107440;-80
2023/06/23 03:03:18;;;;;;;7.30;6.40;;;;;;;17.33;69.95;100012.75;131049;1254;107400;-79
2023/06/23 03:06:25;;;;;;;8.30;6.40;;;;;;;17.37;70.20;100020.77;131275;1254;107517;-80
2023/06/23 03:09:30;;;;;;;6.90;5.70;;;;;;;17.44;70.32;100022.89;131173;1251;107371;-80
2023/06/23 03:12:36;;;;;;;6.80;5.80;;;;;;;17.55;70.39;100016.42;131235;1251;107524;-80
2023/06/23 03:15:43;;;;;;;7.20;6.50;;;;;;;17.69;70.54;100010.48;131107;1253;107455;-80
2023/06/23 03:18:58;;;;;;;8.80;7.20;;;;;;;17.82;70.62;100009.68;131057;1251;108466;-80
2023/06/23 03:22:08;;;;;;;8.30;6.80;;;;;;;17.90;70.75;100014.28;131100;1253;107534;-81
2023/06/23 03:25:20;;;;;;;8.90;7.30;;;;;;;17.98;71.00;100014.52;131190;1253;107575;-80
2023/06/23 03:28:29;;;;;;;9.50;7.30;;;;;;;18.04;71.13;100020.71;131096;1254;107232;-80
2023/06/23 03:31:40;;;;;;;7.80;6.70;;;;;;;18.11;71.37;100024.44;131382;1253;107666;-82
2023/06/23 03:34:53;;;;;;;8.70;6.40;;;;;;;18.20;71.58;100031.38;131304;1254;107611;-82
2023/06/23 03:38:02;;;;;;;7.20;6.50;;;;;;;18.28;71.74;100028.21;131371;1253;107467;-83
2023/06/23 03:41:11;;;;;;;7.70;6.90;;;;;;;18.37;71.73;100008.25;131361;1253;107462;-82
2023/06/23 03:44:25;;;;;;;9.00;7.20;;;;;;;18.49;71.70;99993.40;131388;1253;107582;-83
2023/06/23 03:47:32;;;;;;;7.80;6.90;;;;;;;18.57;71.79;99985.02;131279;1253;107458;-83
2023/06/23 03:50:40;;;;;;;9.50;7.70;;;;;;;18.61;71.93;99976.86;131240;1251;106259;-83
2023/06/23 03:53:47;;;;;;;9.80;7.60;;;;;;;18.68;72.17;99980.88;131373;1253;107520;-82
2023/06/23 03:56:54;;;;;;;8.60;6.70;;;;;;;18.75;72.27;99980.53;131331;1253;106816;-83
2023/06/23 04:00:03;;;;;;;7.30;6.20;;;;;;;18.88;72.31;99960.83;131370;1253;107652;-83
2023/06/23 04:03:19;;;;;;;7.70;6.50;;;;;;;19.07;72.12;99948.92;131285;1250;107553;-83
2023/06/23 04:06:27;;;;;;;8.80;6.50;;;;;;;19.30;72.09;99952.70;131174;1251;107220;-83
2023/06/23 04:09:34;;;;;;;7.40;6.20;;;;;;;19.56;71.82;99961.84;131122;1253;107444;-83
2023/06/23 04:12:42;;;;;;;8.00;6.60;;;;;;;19.82;71.75;99977.67;131071;1250;107506;-83
2023/06/23 04:15:49;;;;;;;7.30;6.10;;;;;;;20.06;71.46;99997.20;131094;1251;107523;-83
2023/06/23 04:18:57;;;;;;;7.30;6.50;;;;;;;20.27;71.34;100011.54;131138;1253;107572;-82
2023/06/23 04:22:04;;;;;;;7.30;6.50;;;;;;;20.44;71.04;100010.80;131107;1251;107651;-83
2023/06/23 04:25:13;;;;;;;7.00;6.20;;;;;;;20.53;70.66;100008.16;131135;1253;107345;-82
2023/06/23 04:28:23;;;;;;;11.50;7.70;;;;;;;20.61;70.69;100005.80;131097;1256;107356;-83
2023/06/23 04:31:31;;;;;;;8.10;6.40;;;;;;;20.66;70.48;100000.33;131162;1250;107247;-83
2023/06/23 04:34:37;;;;;;;9.00;6.40;;;;;;;20.68;70.60;99997.30;131233;1253;107417;-83
2023/06/23 04:37:47;;;;;;;7.00;6.30;;;;;;;20.70;70.57;99973.77;131086;1253;107521;-83
2023/06/23 04:40:55;;;;;;;6.80;6.10;;;;;;;20.74;70.65;99947.68;131333;1253;107543;-83
2023/06/23 04:44:02;;;;;;;7.00;5.80;;;;;;;20.82;70.54;99948.84;131272;1250;107514;-83
2023/06/23 04:47:10;;;;;;;8.50;6.30;;;;;;;20.93;70.61;99976.73;131501;1251;107877;-83
2023/06/23 04:50:21;;;;;;;8.40;6.30;;;;;;;21.04;70.59;99990.25;131428;1253;106460;-83
2023/06/23 04:53:34;;;;;;;7.80;6.40;;;;;;;21.16;70.35;100005.23;131067;1251;106192;-83
2023/06/23 04:56:42;;;;;;;7.50;6.60;;;;;;;21.26;70.41;100024.92;131162;1253;107367;-83
2023/06/23 04:59:52;;;;;;;7.00;6.30;;;;;;;21.30;70.32;100019.38;131137;1253;108658;-82
2023/06/23 05:03:00;;;;;;;6.90;6.30;;;;;;;21.33;70.10;99998.53;131267;1251;107584;-83
2023/06/23 05:06:07;;;;;;;8.10;6.40;;;;;;;21.38;70.09;99984.81;131111;1253;108775;-83
2023/06/23 05:09:15;;;;;;;8.00;7.10;;;;;;;21.44;69.97;99981.99;131076;1253;107631;-83
2023/06/23 05:12:23;;;;;;;8.30;7.50;;;;;;;21.50;69.98;99980.98;131078;1263;108490;-83
2023/06/23 05:15:29;;;;;;;9.10;7.00;;;;;;;21.54;69.82;99979.52;131115;1253;107416;-82
2023/06/23 05:18:36;;;;;;;7.30;6.60;;;;;;;21.54;69.76;99975.13;131163;1254;107425;-83
2023/06/23 05:21:44;;;;;;;7.80;6.90;;;;;;;21.52;69.84;99966.16;131115;1253;106562;-83
2023/06/23 05:24:54;;;;;;;7.40;6.70;;;;;;;21.51;69.71;99965.64;131255;1251;107679;-82
2023/06/23 05:28:01;;;;;;;7.90;6.90;;;;;;;21.47;69.82;99954.85;131206;1253;107264;-82
2023/06/23 05:31:08;;;;;;;9.30;7.20;;;;;;;21.45;69.74;99953.38;131067;1253;107780;-82
2023/06/23 05:34:17;;;;;;;9.10;7.20;;;;;;;21.39;69.74;99973.45;131176;1257;107542;-83
2023/06/23 05:37:24;;;;;;;7.80;7.00;;;;;;;21.36;69.91;99995.12;131195;1257;107883;-83
2023/06/23 05:40:29;;;;;;;8.00;6.80;;;;;;;21.34;69.94;100006.08;131299;1251;107545;-83
2023/06/23 05:43:35;;;;;;;9.90;8.10;;;;;;;21.32;69.89;100002.25;131359;1253;106906;-83
2023/06/23 05:46:44;;;;;;;8.10;7.30;;;;;;;21.29;70.03;100002.59;131311;1250;107223;-83
2023/06/23 05:49:53;;;;;;;8.70;7.60;;;;;;;21.23;70.22;99987.44;131279;1253;107375;-83
2023/06/23 05:53:02;;;;;;;8.20;7.30;;;;;;;21.16;70.24;99976.69;131131;1250;107229;-82
2023/06/23 05:56:15;;;;;;;8.30;7.20;;;;;;;21.08;70.43;99963.77;131218;1250;107388;-83
2023/06/23 05:59:26;;;;;;;11.80;7.10;;;;;;;21.02;70.50;99944.77;131291;1253;107768;-83
2023/06/23 06:02:35;;;;;;;10.00;7.60;;;;;;;20.97;70.67;99942.21;131297;1251;108577;-82
2023/06/23 06:05:46;;;;;;;7.90;7.00;;;;;;;20.94;70.69;99950.16;131155;1250;108285;-83
2023/06/23 06:08:53;;;;;;;10.80;7.20;;;;;;;20.93;70.76;99940.73;131176;1253;106029;-82
2023/06/23 06:12:03;;;;;;;8.20;7.30;;;;;;;20.91;70.89;99929.65;131066;1251;107527;-82
2023/06/23 06:15:11;;;;;;;8.70;7.80;;;;;;;20.86;71.15;99941.08;131280;1253;107552;-83
2023/06/23 06:18:18;;;;;;;8.30;7.50;;;;;;;20.78;71.20;99961.86;131424;1251;107472;-83
2023/06/23 06:21:26;;;;;;;9.60;8.10;;;;;;;20.73;71.43;99979.39;131327;1253;107514;-83
2023/06/23 06:24:33;;;;;;;8.30;7.30;;;;;;;20.69;71.66;100003.30;131352;1254;107564;-83
2023/06/23 06:27:42;;;;;;;10.10;8.20;;;;;;;20.61;72.06;100013.68;131292;1253;107246;-83
2023/06/23 06:30:49;;;;;;;9.40;8.40;;;;;;;20.53;72.10;99953.83;131107;1253;107502;-83
2023/06/23 06:33:56;;;;;;;10.80;8.90;;;;;;;20.51;71.98;99957.45;131310;1253;107664;-82
2023/06/23 06:37:03;;;;;;;11.20;9.50;;;;;;;20.50;72.05;99974.17;131419;1253;107541;-82
2023/06/23 06:40:12;;;;;;;10.70;9.60;;;;;;;20.49;72.36;99981.56;131260;1251;107523;-82
2023/06/23 06:43:18;;;;;;;13.80;10.40;;;;;;;20.46;72.35;99987.21;131111;1254;107490;-82
2023/06/23 06:46:31;;;;;;;12.20;10.50;;;;;;;20.41;72.41;99967.50;131163;1253;107446;-82
2023/06/23 06:49:40;;;;;;;12.40;10.00;;;;;;;20.35;72.73;99977.04;131422;1251;107654;-82
2023/06/23 06:52:47;;;;;;;13.30;11.10;;;;;;;20.29;72.83;99948.23;131344;1253;107791;-82
2023/06/23 06:55:53;;;;;;;14.70;10.90;;;;;;;20.26;72.86;99932.85;131300;1253;105705;-82
2023/06/23 06:58:59;;;;;;;12.80;10.60;;;;;;;20.24;73.08;99931.29;131262;1253;107528;-82
2023/06/23 07:02:06;;;;;;;12.70;11.30;;;;;;;20.19;73.44;99924.98;131435;1250;107510;-82
2023/06/23 07:05:12;;;;;;;13.90;11.60;;;;;;;20.14;73.53;99921.89;131323;1251;107523;-83
2023/06/23 07:08:17;;;;;;;13.10;11.40;;;;;;;20.09;73.73;99906.61;131300;1253;107401;-83
2023/06/23 07:11:23;;;;;;;12.60;10.80;;;;;;;20.03;73.66;99886.35;131107;1251;107305;-83
2023/06/23 07:14:29;;;;;;;13.70;10.60;;;;;;;19.98;73.98;99851.47;131287;1253;107573;-82
2023/06/23 07:17:34;;;;;;;12.10;9.80;;;;;;;19.92;74.15;99824.00;131415;1253;106506;-82
2023/06/23 07:20:40;;;;;;;12.80;10.80;;;;;;;19.88;74.37;99802.97;131477;1250;107345;-82
2023/06/23 07:23:45;;;;;;;12.60;10.50;;;;;;;19.84;74.75;99769.98;131159;1251;107514;-83
2023/06/23 07:26:51;;;;;;;13.90;11.80;;;;;;;19.79;75.31;99741.04;131177;1253;107482;-82
2023/06/23 07:29:58;;;;;;;14.00;11.30;;;;;;;19.72;75.56;99738.33;131228;1251;107254;-82
2023/06/23 07:33:04;;;;;;;14.60;11.70;;;;;;;19.65;76.00;99723.97;131372;1251;107382;-82
2023/06/23 07:36:09;;;;;;;13.80;11.10;;;;;;;19.55;76.42;99697.93;131269;1250;107996;-83
2023/06/23 07:39:15;;;;;;;12.80;10.90;;;;;;;19.49;76.90;99670.58;131434;1253;107818;-83
2023/06/23 07:42:21;;;;;;;12.50;11.20;;;;;;;19.42;77.49;99675.46;131147;1253;107516;-83
2023/06/23 07:45:26;;;;;;;17.20;11.80;;;;;;;19.37;77.81;99661.34;131114;1253;107501;-82
2023/06/23 07:48:32;;;;;;;15.60;11.30;;;;;;;19.30;78.16;99661.84;131182;1253;106516;-83
2023/06/23 07:51:37;;;;;;;12.40;10.60;;;;;;;19.23;79.11;99673.06;131124;1253;107513;-82
2023/06/23 07:54:43;;;;;;;14.20;11.00;;;;;;;19.18;78.52;99678.19;131077;1256;107308;-82
2023/06/23 07:57:49;;;;;;;11.80;10.60;;;;;;;19.17;78.81;99686.73;131025;1257;106515;-83
2023/06/23 08:00:55;;;;;;;12.20;10.90;;;;;;;19.17;78.67;99684.19;131111;1250;107563;-82
2023/06/23 08:04:01;;;;;;;11.00;9.80;;;;;;;19.17;79.24;99679.52;131138;1251;107587;-82
2023/06/23 08:07:07;;;;;;;11.90;9.30;;;;;;;19.17;79.04;99684.61;131268;1265;107785;-82
2023/06/23 08:10:13;;;;;;;12.30;8.90;;;;;;;19.18;79.39;99693.67;131172;1253;106553;-83
2023/06/23 08:13:20;;;;;;;11.20;8.40;;;;;;;19.19;79.67;99699.15;131144;1250;108772;-82
2023/06/23 08:16:25;;;;;;;9.60;8.60;;;;;;;19.20;79.56;99713.63;131102;1251;107253;-82
2023/06/23 08:19:31;;;;;;;8.40;7.40;;;;;;;19.21;79.74;99717.04;131155;1251;107375;-82
2023/06/23 08:22:39;;;;;;;10.70;7.20;;;;;;;19.25;79.47;99710.00;131219;1253;107533;-82
2023/06/23 08:25:45;;;;;;;8.60;7.60;;;;;;;19.30;79.84;99732.17;131125;1253;107422;-82
2023/06/23 08:28:50;;;;;;;8.70;7.70;;;;;;;19.34;79.92;99741.63;131178;1253;107470;-82
2023/06/23 08:31:56;;;;;;;11.20;8.80;;;;;;;19.36;80.80;99779.97;131032;1253;107501;-82
2023/06/23 08:35:03;;;;;;;8.90;8.00;;;;;;;19.22;82.84;99817.17;131173;1251;107380;-82
2023/06/23 08:38:12;;;;;;;8.60;7.80;;;;;;;19.09;81.93;99829.05;131278;1251;107503;-82
2023/06/23 08:41:22;;;;;;;10.40;8.40;;;;;;;19.12;82.41;99830.90;131300;1253;107417;-81
2023/06/23 08:44:30;;;;;;;10.30;8.60;;;;;;;19.13;82.09;99856.98;131450;1252;107523;-82
2023/06/23 08:47:42;;;;;;;11.00;8.10;;;;;;;19.22;81.90;99868.86;131362;1256;105567;-82
2023/06/23 08:50:46;;;;;;;;;;;;;;;19.32;81.71;99880.27;131390;1253;107321;-82
2023/06/23 08:53:51;;;;;;;9.40;6.90;;;;;;;19.42;81.98;99877.08;131327;1253;106563;-82
2023/06/23 08:56:57;;;;;;;8.50;7.60;;;;;;;19.49;82.32;99882.76;131377;1250;106890;-82
2023/06/23 09:00:04;;;;;;;8.50;7.50;;;;;;;19.46;83.07;99882.95;131241;1253;107378;-82
2023/06/23 09:03:09;;;;;;;9.80;7.70;;;;;;;19.56;82.35;99902.86;131374;1254;107529;-82
2023/06/23 09:06:15;;;;;;;7.40;6.70;;;;;;;19.71;82.26;99909.73;131158;1253;107510;-82
2023/06/23 09:09:21;;;;;;;9.10;7.30;;;;;;;19.85;82.15;99915.63;131068;1263;107280;-82
2023/06/23 09:12:26;;;;;;;9.40;8.40;;;;;;;19.94;83.08;99914.84;131089;1251;107215;-83
2023/06/23 09:15:33;;;;;;;13.50;9.20;;;;;;;19.94;83.68;99926.80;131100;1253;107766;-82
2023/06/23 09:18:46;;;;;;;11.60;9.70;;;;;;;19.96;84.61;99939.64;131201;1254;106589;-84
2023/06/23 09:21:52;;;;;;;10.00;8.40;;;;;;;19.98;85.35;99945.92;131129;1256;107495;-82
2023/06/23 09:24:58;;;;;;;10.00;8.90;;;;;;;20.08;86.10;99952.34;131109;1253;107536;-82
2023/06/23 09:28:04;;;;;;;9.70;8.60;;;;;;;20.16;85.91;99952.30;131130;1251;107507;-82
2023/06/23 09:31:15;;;;;;;10.00;8.80;;;;;;;20.30;86.19;99943.73;131421;1254;107520;-82
2023/06/23 09:34:25;;;;;;;10.10;9.10;;;;;;;20.50;85.42;99931.63;131250;1251;107519;-82
2023/06/23 09:37:37;;;;;;;11.60;8.70;;;;;;;20.64;84.82;99941.42;131068;1254;107572;-83
2023/06/23 09:40:41;;;;;;;;;;;;;;;20.86;84.15;99938.81;131123;1255;107515;-82
2023/06/23 09:43:50;;;;;;;8.60;7.40;;;;;;;21.20;83.67;99942.27;130999;1255;107581;-82
2023/06/23 09:47:03;;;;;;;10.60;7.70;;;;;;;21.57;83.34;99938.75;131249;1256;107129;-82
2023/06/23 09:50:17;;;;;;;10.20;7.90;;;;;;;21.92;82.69;99946.10;131283;1257;106244;-82
2023/06/23 09:53:23;;;;;;;10.00;8.30;;;;;;;22.28;81.82;99953.59;131287;1256;107257;-82
2023/06/23 09:56:28;;;;;;;8.40;7.60;;;;;;;22.48;81.21;99953.55;131260;1256;108490;-82
2023/06/23 09:59:34;;;;;;;8.90;8.10;;;;;;;22.64;81.26;99952.11;131189;1250;107518;-82
2023/06/23 10:02:41;;;;;;;8.40;7.40;;;;;;;22.88;81.22;99950.99;131179;1256;107459;-82
2023/06/23 10:05:47;;;;;;;9.80;8.10;;;;;;;23.16;80.43;99938.89;131212;1251;108618;-82
2023/06/23 10:08:55;;;;;;;7.80;7.00;;;;;;;23.45;80.29;99935.09;131332;1253;107418;-82
2023/06/23 10:12:00;;;;;;;8.10;7.20;;;;;;;23.77;79.92;99940.11;131136;1253;108060;-82
2023/06/23 10:15:08;;;;;;;8.60;7.70;;;;;;;24.07;79.31;99949.27;131161;1250;108094;-82
2023/06/23 10:18:14;;;;;;;9.20;7.30;;;;;;;24.33;78.82;99951.48;131244;1253;107500;-82
2023/06/23 10:21:20;;;;;;;7.70;6.90;;;;;;;24.54;79.14;99944.74;131227;1253;107498;-82
2023/06/23 10:24:27;;;;;;;9.20;6.70;;;;;;;24.71;78.55;99948.72;131168;1253;106881;-82
2023/06/23 10:27:35;;;;;;;7.80;7.00;;;;;;;24.81;78.32;99949.44;131185;1253;107533;-83
2023/06/23 10:30:43;;;;;;;8.30;6.70;;;;;;;24.91;78.05;99954.27;131215;1253;106704;-82
2023/06/23 10:33:50;;;;;;;7.50;6.80;;;;;;;25.01;77.80;99945.91;131220;1254;107568;-82
2023/06/23 10:37:00;;;;;;;9.30;6.40;;;;;;;25.15;77.50;99952.61;131159;1253;108993;-82
2023/06/23 10:40:10;;;;;;;7.90;7.10;;;;;;;25.27;77.45;99954.62;131210;1253;107427;-82
2023/06/23 10:43:18;;;;;;;8.80;6.70;;;;;;;25.35;77.24;99947.33;131272;1253;107367;-82
2023/06/23 10:46:25;;;;;;;7.90;6.40;;;;;;;25.49;76.68;99947.61;131198;1253;107520;-82
2023/06/23 10:49:31;;;;;;;7.50;6.30;;;;;;;25.58;76.64;99943.48;131296;1253;107514;-82
2023/06/23 10:52:37;;;;;;;7.40;6.60;;;;;;;25.73;76.34;99941.32;131141;1251;105842;-82
2023/06/23 10:55:44;;;;;;;7.50;6.80;;;;;;;25.80;76.19;99951.26;131105;1251;106216;-82
2023/06/23 10:58:52;;;;;;;7.50;6.70;;;;;;;25.78;75.52;99950.00;131198;1253;107478;-82
2023/06/23 11:02:17;;;;;;;7.90;7.00;;;;;;;25.76;75.32;99946.81;131147;1263;107461;-82
2023/06/23 11:05:23;;;;;;;8.80;7.10;;;;;;;25.76;75.38;99945.71;131198;1254;107501;-82
2023/06/23 11:08:34;;;;;;;7.60;6.80;;;;;;;25.75;75.15;99944.34;131244;1251;107259;-82
2023/06/23 11:11:40;;;;;;;9.40;8.10;;;;;;;25.78;75.14;99944.09;131150;1253;107500;-82
2023/06/23 11:14:46;;;;;;;9.80;6.90;;;;;;;25.79;74.55;99939.39;131199;1253;107600;-82
2023/06/23 11:18:04;;;;;;;7.70;6.90;;;;;;;25.82;74.36;99932.10;131201;1254;107347;-82
2023/06/23 11:21:19;;;;;;;7.30;6.60;;;;;;;25.86;74.50;99927.97;131234;1254;108000;-82
2023/06/23 11:24:28;;;;;;;7.60;6.80;;;;;;;25.93;73.99;99927.05;131193;1253;107400;-82
2023/06/23 11:27:33;;;;;;;9.70;6.90;;;;;;;26.02;73.73;99924.45;131164;1253;106633;-82
2023/06/23 11:30:54;;;;;;;8.30;6.60;;;;;;;26.06;73.38;99924.25;131190;1254;106680;-83
2023/06/23 11:34:03;;;;;;;7.20;6.40;;;;;;;26.05;73.08;99918.29;131091;1250;107454;-82
2023/06/23 11:37:09;;;;;;;7.40;5.60;;;;;;;26.03;72.84;99919.20;131100;1263;107518;-81
2023/06/23 11:40:16;;;;;;;6.60;5.80;;;;;;;25.99;72.57;99920.91;131158;1253;107488;-82
2023/06/23 11:43:22;;;;;;;7.20;6.00;;;;;;;25.95;72.95;99916.58;131015;1257;107558;-84
2023/06/23 11:46:31;;;;;;;7.00;5.60;;;;;;;25.94;72.15;99914.55;131297;1257;105756;-83
2023/06/23 11:49:38;;;;;;;7.00;5.50;;;;;;;25.92;72.15;99912.90;131343;1254;107514;-84
2023/06/23 11:52:44;;;;;;;7.90;6.10;;;;;;;25.92;72.31;99909.84;131146;1251;107497;-83
2023/06/23 11:55:51;;;;;;;8.10;5.90;;;;;;;25.97;72.17;99911.07;131178;1253;107229;-82
2023/06/23 11:58:57;;;;;;;7.20;5.80;;;;;;;26.00;71.89;99913.77;131117;1253;107985;-82
2023/06/23 12:02:04;;;;;;;9.90;6.00;;;;;;;26.04;71.50;99911.13;131317;1251;108151;-82
2023/06/23 12:05:11;;;;;;;5.90;5.20;;;;;;;26.07;71.63;99913.22;131343;1254;107621;-81
2023/06/23 12:08:17;;;;;;;6.20;5.20;;;;;;;26.12;71.41;99910.73;131364;1253;107487;-83
2023/06/23 12:11:23;;;;;;;8.00;5.50;;;;;;;26.19;71.59;99911.75;131127;1253;107506;-82
2023/06/23 12:14:34;;;;;;;7.50;5.40;;;;;;;26.22;71.18;99907.73;131109;1253;107487;-81
2023/06/23 12:17:43;;;;;;;6.70;5.20;;;;;;;26.24;70.69;99907.02;131110;1253;107541;-82
2023/06/23 12:20:49;;;;;;;6.40;5.30;;;;;;;26.21;70.45;99902.20;131145;1263;107324;-81
2023/06/23 12:23:57;;;;;;;8.70;5.50;;;;;;;26.23;71.06;99908.23;131107;1253;107313;-82
2023/06/23 12:27:02;;;;;;;6.10;5.30;;;;;;;26.31;70.72;99902.13;131129;1255;107055;-82
2023/06/23 12:30:18;;;;;;;8.20;5.20;;;;;;;26.39;71.01;99896.80;131196;1253;108659;-81
2023/06/23 12:33:27;;;;;;;7.00;5.40;;;;;;;26.53;70.73;99891.05;131169;1253;107522;-82
2023/06/23 12:36:33;;;;;;;6.90;5.30;;;;;;;26.61;70.63;99892.50;131412;1253;107568;-81
2023/06/23 12:39:38;;;;;;;6.40;5.10;;;;;;;26.74;70.36;99891.21;131160;1254;107682;-81
2023/06/23 12:42:44;;;;;;;7.10;5.50;;;;;;;26.91;69.87;99881.08;131192;1254;107708;-82
2023/06/23 12:45:54;;;;;;;6.80;5.70;;;;;;;27.08;69.62;99877.71;131165;1253;107569;-82
2023/06/23 12:49:00;;;;;;;7.60;5.80;;;;;;;27.24;69.26;99877.02;131092;1253;107618;-82
2023/06/23 12:52:10;;;;;;;9.10;5.60;;;;;;;27.33;69.02;99877.92;131186;1251;107570;-82
2023/06/23 12:55:16;;;;;;;8.40;5.70;;;;;;;27.41;69.35;99877.42;131114;1253;107455;-81
2023/06/23 12:58:24;;;;;;;7.40;5.50;;;;;;;27.43;68.81;99876.01;131170;1253;108795;-82
2023/06/23 13:01:30;;;;;;;7.60;5.40;;;;;;;27.37;68.63;99876.73;131129;1253;107255;-82
2023/06/23 13:04:35;;;;;;;7.80;5.40;;;;;;;27.31;68.31;99881.92;131074;1254;107439;-82
2023/06/23 13:07:42;;;;;;;7.50;5.60;;;;;;;27.30;68.49;99881.81;131017;1257;107680;-81
2023/06/23 13:10:48;;;;;;;8.50;6.20;;;;;;;27.33;68.51;99882.70;131068;1256;107432;-82
2023/06/23 13:13:54;;;;;;;9.60;6.00;;;;;;;27.36;68.32;99877.54;131050;1256;107626;-82
2023/06/23 13:17:00;;;;;;;7.50;5.50;;;;;;;27.47;68.43;99870.73;131074;1256;107184;-82
2023/06/23 13:20:06;;;;;;;11.10;5.70;;;;;;;27.60;68.17;99872.21;131128;1255;107411;-82
2023/06/23 13:23:12;;;;;;;8.50;6.30;;;;;;;27.74;68.06;99873.67;131247;1257;107526;-82
2023/06/23 13:26:17;;;;;;;8.80;5.70;;;;;;;27.82;67.64;99873.11;131424;1253;107594;-82
2023/06/23 13:29:23;;;;;;;9.40;5.60;;;;;;;27.83;67.27;99869.39;131231;1253;107483;-83
2023/06/23 13:32:28;;;;;;;8.40;6.30;;;;;;;27.85;67.05;99874.77;131260;1261;107638;-82
2023/06/23 13:35:34;;;;;;;8.50;6.10;;;;;;;27.78;66.86;99872.35;131275;1253;108386;-82
2023/06/23 13:38:41;;;;;;;10.90;6.30;;;;;;;27.63;66.61;99872.54;131316;1263;107445;-82
2023/06/23 13:41:47;;;;;;;9.80;7.20;;;;;;;27.49;66.06;99868.07;131420;1254;107041;-82
2023/06/23 13:44:53;;;;;;;11.00;7.60;;;;;;;27.41;66.44;99866.69;131350;1253;107439;-82
2023/06/23 13:47:58;;;;;;;9.80;7.90;;;;;;;27.41;65.14;99869.05;131366;1251;107267;-83
2023/06/23 13:51:04;;;;;;;10.40;8.10;;;;;;;27.40;65.94;99872.88;131399;1253;108644;-84
2023/06/23 13:54:10;;;;;;;8.80;7.80;;;;;;;27.41;65.47;99867.45;131385;1254;107987;-82
2023/06/23 13:57:16;;;;;;;9.10;8.20;;;;;;;27.29;64.89;99867.12;131230;1254;107556;-81
2023/06/23 14:00:25;;;;;;;8.90;8.00;;;;;;;27.22;64.35;99868.15;131360;1261;107300;-82
2023/06/23 14:03:30;;;;;;;9.90;8.50;;;;;;;27.12;64.71;99873.06;131152;1263;107526;-82
2023/06/23 14:06:36;;;;;;;9.50;8.10;;;;;;;27.04;63.75;99877.88;131096;1258;167307;-82
2023/06/23 14:09:42;;;;;;;9.20;8.00;;;;;;;26.89;63.97;99884.09;131143;1254;107501;-82
2023/06/23 14:12:50;;;;;;;11.50;7.80;;;;;;;26.72;64.46;99877.87;131407;1263;107128;-82
2023/06/23 14:15:56;;;;;;;9.70;7.90;;;;;;;26.67;65.12;99882.27;131157;1257;107636;-83